sensor_id;sensor_type;location;lat;lon;timestamp;P1;durP1;ratioP1;P2;durP2;ratioP2
16862;SDS011;52193;48.216;-1.698;2023-05-07T00:01:24;6.07;;;4.88;;
16862;SDS011;52193;48.216;-1.698;2023-05-07T00:03:52;7.45;;;5.40;;
16862;SDS011;52193;48.216;-1.698;2023-05-07T00:06:19;6.55;;;5.05;;
16862;SDS011;52193;48.216;-1.698;2023-05-07T00:08:46;5.72;;;4.72;;
16862;SDS011;52193;48.216;-1.698;2023-05-07T00:11:13;5.70;;;4.63;;
16862;SDS011;52193;48.216;-1.698;2023-05-07T00:13:40;5.63;;;4.15;;
16862;SDS011;52193;48.216;-1.698;2023-05-07T00:16:07;6.35;;;3.65;;
16862;SDS011;52193;48.216;-1.698;2023-05-07T00:18:34;7.30;;;3.92;;
16862;SDS011;52193;48.216;-1.698;2023-05-07T00:21:02;5.85;;;3.72;;
16862;SDS011;52193;48.216;-1.698;2023-05-07T00:23:29;6.40;;;3.97;;
16862;SDS011;52193;48.216;-1.698;2023-05-07T00:25:56;6.95;;;3.85;;
16862;SDS011;52193;48.216;-1.698;2023-05-07T00:28:23;3.72;;;3.30;;
16862;SDS011;52193;48.216;-1.698;2023-05-07T00:30:50;5.75;;;3.60;;
16862;SDS011;52193;48.216;-1.698;2023-05-07T00:33:17;4.47;;;3.30;;
16862;SDS011;52193;48.216;-1.698;2023-05-07T00:35:45;5.20;;;3.30;;
16862;SDS011;52193;48.216;-1.698;2023-05-07T00:38:14;5.75;;;3.90;;
16862;SDS011;52193;48.216;-1.698;2023-05-07T00:40:41;5.18;;;3.88;;
16862;SDS011;52193;48.216;-1.698;2023-05-07T00:43:07;4.70;;;3.60;;
16862;SDS011;52193;48.216;-1.698;2023-05-07T00:45:34;6.70;;;4.20;;
16862;SDS011;52193;48.216;-1.698;2023-05-07T00:48:01;5.28;;;4.03;;
16862;SDS011;52193;48.216;-1.698;2023-05-07T00:50:29;4.57;;;4.10;;
16862;SDS011;52193;48.216;-1.698;2023-05-07T00:52:58;5.15;;;4.15;;
16862;SDS011;52193;48.216;-1.698;2023-05-07T00:55:27;4.40;;;3.70;;
16862;SDS011;52193;48.216;-1.698;2023-05-07T00:57:54;5.40;;;4.10;;
16862;SDS011;52193;48.216;-1.698;2023-05-07T01:00:21;5.50;;;4.35;;
16862;SDS011;52193;48.216;-1.698;2023-05-07T01:02:49;4.38;;;3.97;;
16862;SDS011;52193;48.216;-1.698;2023-05-07T01:05:17;6.97;;;4.00;;
16862;SDS011;52193;48.216;-1.698;2023-05-07T01:07:46;4.13;;;3.72;;
16862;SDS011;52193;48.216;-1.698;2023-05-07T01:10:14;5.05;;;3.63;;
16862;SDS011;52193;48.216;-1.698;2023-05-07T01:12:43;3.60;;;3.30;;
16862;SDS011;52193;48.216;-1.698;2023-05-07T01:15:12;5.47;;;3.75;;
16862;SDS011;52193;48.216;-1.698;2023-05-07T01:17:40;6.10;;;3.30;;
16862;SDS011;52193;48.216;-1.698;2023-05-07T01:20:08;3.30;;;3.00;;
16862;SDS011;52193;48.216;-1.698;2023-05-07T01:22:38;6.25;;;3.58;;
16862;SDS011;52193;48.216;-1.698;2023-05-07T01:25:06;4.00;;;3.70;;
16862;SDS011;52193;48.216;-1.698;2023-05-07T01:27:33;3.63;;;3.30;;
16862;SDS011;52193;48.216;-1.698;2023-05-07T01:30:01;2.97;;;2.78;;
16862;SDS011;52193;48.216;-1.698;2023-05-07T01:32:29;3.10;;;2.80;;
16862;SDS011;52193;48.216;-1.698;2023-05-07T01:35:00;3.45;;;3.03;;
16862;SDS011;52193;48.216;-1.698;2023-05-07T01:37:28;3.33;;;2.90;;
16862;SDS011;52193;48.216;-1.698;2023-05-07T01:39:57;3.78;;;3.15;;
16862;SDS011;52193;48.216;-1.698;2023-05-07T01:42:24;3.30;;;2.92;;
16862;SDS011;52193;48.216;-1.698;2023-05-07T01:44:51;3.33;;;3.03;;
16862;SDS011;52193;48.216;-1.698;2023-05-07T01:47:18;3.83;;;3.20;;
16862;SDS011;52193;48.216;-1.698;2023-05-07T01:49:46;4.47;;;2.90;;
16862;SDS011;52193;48.216;-1.698;2023-05-07T01:52:13;3.83;;;3.38;;
16862;SDS011;52193;48.216;-1.698;2023-05-07T01:54:40;5.18;;;3.30;;
16862;SDS011;52193;48.216;-1.698;2023-05-07T01:57:09;4.88;;;3.10;;
16862;SDS011;52193;48.216;-1.698;2023-05-07T01:59:36;3.72;;;3.30;;
16862;SDS011;52193;48.216;-1.698;2023-05-07T02:02:02;3.83;;;3.20;;
16862;SDS011;52193;48.216;-1.698;2023-05-07T02:04:29;4.28;;;3.00;;
16862;SDS011;52193;48.216;-1.698;2023-05-07T02:06:56;2.90;;;2.70;;
16862;SDS011;52193;48.216;-1.698;2023-05-07T02:09:23;4.18;;;3.13;;
16862;SDS011;52193;48.216;-1.698;2023-05-07T02:11:50;3.33;;;2.90;;
16862;SDS011;52193;48.216;-1.698;2023-05-07T02:14:18;3.47;;;3.17;;
16862;SDS011;52193;48.216;-1.698;2023-05-07T02:16:46;3.75;;;3.20;;
16862;SDS011;52193;48.216;-1.698;2023-05-07T02:19:13;4.38;;;3.53;;
16862;SDS011;52193;48.216;-1.698;2023-05-07T02:21:40;4.05;;;3.70;;
16862;SDS011;52193;48.216;-1.698;2023-05-07T02:24:07;4.78;;;4.28;;
16862;SDS011;52193;48.216;-1.698;2023-05-07T02:26:34;4.95;;;4.40;;
16862;SDS011;52193;48.216;-1.698;2023-05-07T02:29:01;3.97;;;3.63;;
16862;SDS011;52193;48.216;-1.698;2023-05-07T02:31:29;4.38;;;3.85;;
16862;SDS011;52193;48.216;-1.698;2023-05-07T02:33:58;3.70;;;3.40;;
16862;SDS011;52193;48.216;-1.698;2023-05-07T02:36:26;3.53;;;3.22;;
16862;SDS011;52193;48.216;-1.698;2023-05-07T02:38:52;3.50;;;3.20;;
16862;SDS011;52193;48.216;-1.698;2023-05-07T02:41:19;4.03;;;3.33;;
16862;SDS011;52193;48.216;-1.698;2023-05-07T02:43:46;3.35;;;3.03;;
16862;SDS011;52193;48.216;-1.698;2023-05-07T02:46:13;3.08;;;2.78;;
16862;SDS011;52193;48.216;-1.698;2023-05-07T02:48:42;3.85;;;3.53;;
16862;SDS011;52193;48.216;-1.698;2023-05-07T02:51:09;4.10;;;3.30;;
16862;SDS011;52193;48.216;-1.698;2023-05-07T02:53:36;3.83;;;3.45;;
16862;SDS011;52193;48.216;-1.698;2023-05-07T02:56:03;4.70;;;3.50;;
16862;SDS011;52193;48.216;-1.698;2023-05-07T02:58:31;3.88;;;3.50;;
16862;SDS011;52193;48.216;-1.698;2023-05-07T03:00:58;4.43;;;3.20;;
16862;SDS011;52193;48.216;-1.698;2023-05-07T03:03:25;4.68;;;3.85;;
16862;SDS011;52193;48.216;-1.698;2023-05-07T03:05:53;4.18;;;3.40;;
16862;SDS011;52193;48.216;-1.698;2023-05-07T03:08:20;4.68;;;4.15;;
16862;SDS011;52193;48.216;-1.698;2023-05-07T03:10:47;4.45;;;3.78;;
16862;SDS011;52193;48.216;-1.698;2023-05-07T03:13:14;3.75;;;3.45;;
16862;SDS011;52193;48.216;-1.698;2023-05-07T03:15:41;3.85;;;3.38;;
16862;SDS011;52193;48.216;-1.698;2023-05-07T03:18:08;3.50;;;3.20;;
16862;SDS011;52193;48.216;-1.698;2023-05-07T03:20:35;4.50;;;3.40;;
16862;SDS011;52193;48.216;-1.698;2023-05-07T03:23:04;3.72;;;3.42;;
16862;SDS011;52193;48.216;-1.698;2023-05-07T03:25:31;4.70;;;3.80;;
16862;SDS011;52193;48.216;-1.698;2023-05-07T03:27:58;3.83;;;3.40;;
16862;SDS011;52193;48.216;-1.698;2023-05-07T03:30:25;3.50;;;3.25;;
16862;SDS011;52193;48.216;-1.698;2023-05-07T03:32:52;4.25;;;3.85;;
16862;SDS011;52193;48.216;-1.698;2023-05-07T03:35:19;4.55;;;3.20;;
16862;SDS011;52193;48.216;-1.698;2023-05-07T03:37:46;4.60;;;3.85;;
16862;SDS011;52193;48.216;-1.698;2023-05-07T03:40:14;4.50;;;4.10;;
16862;SDS011;52193;48.216;-1.698;2023-05-07T03:42:41;4.85;;;4.00;;
16862;SDS011;52193;48.216;-1.698;2023-05-07T03:45:08;4.60;;;3.80;;
16862;SDS011;52193;48.216;-1.698;2023-05-07T03:47:35;4.40;;;3.97;;
16862;SDS011;52193;48.216;-1.698;2023-05-07T03:50:02;5.07;;;4.40;;
16862;SDS011;52193;48.216;-1.698;2023-05-07T03:52:30;4.38;;;4.00;;
16862;SDS011;52193;48.216;-1.698;2023-05-07T03:54:56;4.40;;;4.00;;
16862;SDS011;52193;48.216;-1.698;2023-05-07T03:57:25;5.38;;;4.20;;
16862;SDS011;52193;48.216;-1.698;2023-05-07T03:59:52;4.80;;;4.30;;
16862;SDS011;52193;48.216;-1.698;2023-05-07T04:02:19;4.88;;;4.40;;
16862;SDS011;52193;48.216;-1.698;2023-05-07T04:04:45;4.60;;;4.20;;
16862;SDS011;52193;48.216;-1.698;2023-05-07T04:07:14;6.85;;;4.90;;
16862;SDS011;52193;48.216;-1.698;2023-05-07T04:09:41;5.88;;;4.82;;
16862;SDS011;52193;48.216;-1.698;2023-05-07T04:12:08;5.32;;;4.75;;
16862;SDS011;52193;48.216;-1.698;2023-05-07T04:14:36;4.38;;;4.05;;
16862;SDS011;52193;48.216;-1.698;2023-05-07T04:17:03;6.00;;;5.40;;
16862;SDS011;52193;48.216;-1.698;2023-05-07T04:19:32;5.47;;;5.05;;
16862;SDS011;52193;48.216;-1.698;2023-05-07T04:21:59;5.72;;;5.22;;
16862;SDS011;52193;48.216;-1.698;2023-05-07T04:24:26;7.97;;;5.50;;
16862;SDS011;52193;48.216;-1.698;2023-05-07T04:26:53;6.47;;;5.53;;
16862;SDS011;52193;48.216;-1.698;2023-05-07T04:29:20;5.93;;;5.43;;
16862;SDS011;52193;48.216;-1.698;2023-05-07T04:31:48;5.10;;;4.80;;
16862;SDS011;52193;48.216;-1.698;2023-05-07T04:34:15;5.30;;;5.00;;
16862;SDS011;52193;48.216;-1.698;2023-05-07T04:36:42;5.35;;;5.05;;
16862;SDS011;52193;48.216;-1.698;2023-05-07T04:39:09;6.13;;;5.60;;
16862;SDS011;52193;48.216;-1.698;2023-05-07T04:41:36;5.00;;;4.70;;
16862;SDS011;52193;48.216;-1.698;2023-05-07T04:44:03;5.20;;;4.85;;
16862;SDS011;52193;48.216;-1.698;2023-05-07T04:46:31;5.65;;;5.25;;
16862;SDS011;52193;48.216;-1.698;2023-05-07T04:48:59;5.82;;;5.32;;
16862;SDS011;52193;48.216;-1.698;2023-05-07T04:51:26;6.15;;;5.65;;
16862;SDS011;52193;48.216;-1.698;2023-05-07T04:53:53;6.00;;;5.47;;
16862;SDS011;52193;48.216;-1.698;2023-05-07T04:56:20;5.88;;;5.38;;
16862;SDS011;52193;48.216;-1.698;2023-05-07T04:58:47;5.70;;;5.30;;
16862;SDS011;52193;48.216;-1.698;2023-05-07T05:01:13;5.20;;;4.90;;
16862;SDS011;52193;48.216;-1.698;2023-05-07T05:03:40;5.22;;;4.82;;
16862;SDS011;52193;48.216;-1.698;2023-05-07T05:06:09;5.57;;;5.07;;
16862;SDS011;52193;48.216;-1.698;2023-05-07T05:08:36;5.75;;;5.35;;
16862;SDS011;52193;48.216;-1.698;2023-05-07T05:11:03;5.53;;;5.10;;
16862;SDS011;52193;48.216;-1.698;2023-05-07T05:13:30;4.95;;;4.65;;
16862;SDS011;52193;48.216;-1.698;2023-05-07T05:15:57;4.75;;;4.45;;
16862;SDS011;52193;48.216;-1.698;2023-05-07T05:18:24;5.25;;;4.88;;
16862;SDS011;52193;48.216;-1.698;2023-05-07T05:20:51;5.55;;;5.18;;
16862;SDS011;52193;48.216;-1.698;2023-05-07T05:23:19;5.35;;;5.05;;
16862;SDS011;52193;48.216;-1.698;2023-05-07T05:25:46;5.18;;;4.68;;
16862;SDS011;52193;48.216;-1.698;2023-05-07T05:28:13;5.47;;;5.10;;
16862;SDS011;52193;48.216;-1.698;2023-05-07T05:30:40;5.60;;;5.20;;
16862;SDS011;52193;48.216;-1.698;2023-05-07T05:33:07;5.70;;;5.30;;
16862;SDS011;52193;48.216;-1.698;2023-05-07T05:35:34;5.53;;;5.15;;
16862;SDS011;52193;48.216;-1.698;2023-05-07T05:38:01;5.53;;;5.10;;
16862;SDS011;52193;48.216;-1.698;2023-05-07T05:40:29;4.80;;;4.50;;
16862;SDS011;52193;48.216;-1.698;2023-05-07T05:42:57;5.43;;;5.03;;
16862;SDS011;52193;48.216;-1.698;2023-05-07T05:45:24;5.13;;;4.82;;
16862;SDS011;52193;48.216;-1.698;2023-05-07T05:47:50;5.57;;;5.10;;
16862;SDS011;52193;48.216;-1.698;2023-05-07T05:50:17;5.03;;;4.80;;
16862;SDS011;52193;48.216;-1.698;2023-05-07T05:52:44;4.90;;;4.65;;
16862;SDS011;52193;48.216;-1.698;2023-05-07T05:55:11;4.50;;;4.30;;
16862;SDS011;52193;48.216;-1.698;2023-05-07T05:57:40;4.32;;;4.13;;
16862;SDS011;52193;48.216;-1.698;2023-05-07T06:00:07;4.40;;;4.28;;
16862;SDS011;52193;48.216;-1.698;2023-05-07T06:02:35;4.25;;;4.15;;
16862;SDS011;52193;48.216;-1.698;2023-05-07T06:05:02;4.53;;;4.40;;
16862;SDS011;52193;48.216;-1.698;2023-05-07T06:07:30;4.88;;;4.68;;
16862;SDS011;52193;48.216;-1.698;2023-05-07T06:09:57;5.20;;;5.00;;
16862;SDS011;52193;48.216;-1.698;2023-05-07T06:12:23;5.82;;;5.55;;
16862;SDS011;52193;48.216;-1.698;2023-05-07T06:14:52;5.78;;;5.47;;
16862;SDS011;52193;48.216;-1.698;2023-05-07T06:17:19;6.10;;;5.80;;
16862;SDS011;52193;48.216;-1.698;2023-05-07T06:19:46;5.80;;;5.60;;
16862;SDS011;52193;48.216;-1.698;2023-05-07T06:22:12;6.38;;;6.05;;
16862;SDS011;52193;48.216;-1.698;2023-05-07T06:24:40;7.13;;;6.72;;
16862;SDS011;52193;48.216;-1.698;2023-05-07T06:27:06;7.32;;;6.85;;
16862;SDS011;52193;48.216;-1.698;2023-05-07T06:29:33;8.75;;;8.25;;
16862;SDS011;52193;48.216;-1.698;2023-05-07T06:32:08;7.90;;;7.47;;
16862;SDS011;52193;48.216;-1.698;2023-05-07T06:34:35;7.57;;;7.18;;
16862;SDS011;52193;48.216;-1.698;2023-05-07T06:37:02;8.70;;;8.20;;
16862;SDS011;52193;48.216;-1.698;2023-05-07T06:39:29;7.45;;;7.05;;
16862;SDS011;52193;48.216;-1.698;2023-05-07T06:41:57;8.13;;;7.53;;
16862;SDS011;52193;48.216;-1.698;2023-05-07T06:44:24;7.88;;;7.47;;
16862;SDS011;52193;48.216;-1.698;2023-05-07T06:46:51;9.10;;;8.55;;
16862;SDS011;52193;48.216;-1.698;2023-05-07T06:49:19;8.63;;;7.97;;
16862;SDS011;52193;48.216;-1.698;2023-05-07T06:51:46;9.63;;;9.02;;
16862;SDS011;52193;48.216;-1.698;2023-05-07T06:54:13;9.10;;;8.50;;
16862;SDS011;52193;48.216;-1.698;2023-05-07T06:56:40;9.00;;;8.50;;
16862;SDS011;52193;48.216;-1.698;2023-05-07T06:59:07;8.38;;;7.78;;
16862;SDS011;52193;48.216;-1.698;2023-05-07T07:01:34;8.88;;;8.38;;
16862;SDS011;52193;48.216;-1.698;2023-05-07T07:04:01;9.32;;;8.77;;
16862;SDS011;52193;48.216;-1.698;2023-05-07T07:06:29;8.50;;;8.00;;
16862;SDS011;52193;48.216;-1.698;2023-05-07T07:08:57;7.93;;;7.53;;
16862;SDS011;52193;48.216;-1.698;2023-05-07T07:11:24;8.57;;;8.07;;
16862;SDS011;52193;48.216;-1.698;2023-05-07T07:13:51;9.65;;;9.05;;
16862;SDS011;52193;48.216;-1.698;2023-05-07T07:16:19;9.40;;;8.80;;
16862;SDS011;52193;48.216;-1.698;2023-05-07T07:18:46;8.57;;;8.10;;
16862;SDS011;52193;48.216;-1.698;2023-05-07T07:21:13;8.52;;;8.02;;
16862;SDS011;52193;48.216;-1.698;2023-05-07T07:23:41;8.45;;;7.95;;
16862;SDS011;52193;48.216;-1.698;2023-05-07T07:26:08;8.20;;;7.70;;
16862;SDS011;52193;48.216;-1.698;2023-05-07T07:28:35;7.47;;;7.07;;
16862;SDS011;52193;48.216;-1.698;2023-05-07T07:31:08;7.20;;;6.80;;
16862;SDS011;52193;48.216;-1.698;2023-05-07T07:33:35;8.05;;;7.55;;
16862;SDS011;52193;48.216;-1.698;2023-05-07T07:36:02;7.25;;;6.85;;
16862;SDS011;52193;48.216;-1.698;2023-05-07T07:38:31;7.32;;;6.93;;
16862;SDS011;52193;48.216;-1.698;2023-05-07T07:40:59;7.25;;;6.85;;
16862;SDS011;52193;48.216;-1.698;2023-05-07T07:43:26;6.72;;;6.32;;
16862;SDS011;52193;48.216;-1.698;2023-05-07T07:45:53;6.60;;;6.20;;
16862;SDS011;52193;48.216;-1.698;2023-05-07T07:48:20;6.63;;;6.25;;
16862;SDS011;52193;48.216;-1.698;2023-05-07T07:50:48;6.82;;;6.43;;
16862;SDS011;52193;48.216;-1.698;2023-05-07T07:53:16;7.03;;;6.50;;
16862;SDS011;52193;48.216;-1.698;2023-05-07T07:55:43;6.53;;;6.20;;
16862;SDS011;52193;48.216;-1.698;2023-05-07T07:58:12;6.60;;;6.20;;
16862;SDS011;52193;48.216;-1.698;2023-05-07T08:00:38;6.80;;;6.40;;
16862;SDS011;52193;48.216;-1.698;2023-05-07T08:03:05;7.50;;;7.00;;
16862;SDS011;52193;48.216;-1.698;2023-05-07T08:05:35;6.20;;;5.80;;
16862;SDS011;52193;48.216;-1.698;2023-05-07T08:08:03;6.97;;;6.50;;
16862;SDS011;52193;48.216;-1.698;2023-05-07T08:10:31;6.43;;;6.03;;
16862;SDS011;52193;48.216;-1.698;2023-05-07T08:12:59;5.43;;;5.13;;
16862;SDS011;52193;48.216;-1.698;2023-05-07T08:15:29;5.50;;;5.20;;
16862;SDS011;52193;48.216;-1.698;2023-05-07T08:17:57;5.13;;;4.88;;
16862;SDS011;52193;48.216;-1.698;2023-05-07T08:20:25;4.95;;;4.65;;
16862;SDS011;52193;48.216;-1.698;2023-05-07T08:22:52;5.25;;;4.93;;
16862;SDS011;52193;48.216;-1.698;2023-05-07T08:25:19;5.32;;;5.03;;
16862;SDS011;52193;48.216;-1.698;2023-05-07T08:27:46;4.60;;;4.30;;
16862;SDS011;52193;48.216;-1.698;2023-05-07T08:30:13;5.05;;;4.85;;
16862;SDS011;52193;48.216;-1.698;2023-05-07T08:32:42;5.10;;;4.80;;
16862;SDS011;52193;48.216;-1.698;2023-05-07T08:35:09;5.25;;;4.85;;
16862;SDS011;52193;48.216;-1.698;2023-05-07T08:37:36;5.10;;;4.80;;
16862;SDS011;52193;48.216;-1.698;2023-05-07T08:40:03;4.60;;;4.30;;
16862;SDS011;52193;48.216;-1.698;2023-05-07T08:42:31;4.55;;;4.30;;
16862;SDS011;52193;48.216;-1.698;2023-05-07T08:45:01;4.70;;;4.43;;
16862;SDS011;52193;48.216;-1.698;2023-05-07T08:47:33;5.45;;;5.05;;
16862;SDS011;52193;48.216;-1.698;2023-05-07T08:50:08;4.85;;;4.60;;
16862;SDS011;52193;48.216;-1.698;2023-05-07T08:52:35;4.70;;;4.30;;
16862;SDS011;52193;48.216;-1.698;2023-05-07T08:55:03;4.47;;;4.28;;
16862;SDS011;52193;48.216;-1.698;2023-05-07T08:57:30;4.45;;;4.25;;
16862;SDS011;52193;48.216;-1.698;2023-05-07T08:59:57;4.25;;;4.05;;
16862;SDS011;52193;48.216;-1.698;2023-05-07T09:02:24;4.97;;;4.60;;
16862;SDS011;52193;48.216;-1.698;2023-05-07T09:04:51;4.60;;;4.30;;
16862;SDS011;52193;48.216;-1.698;2023-05-07T09:07:20;4.50;;;4.30;;
16862;SDS011;52193;48.216;-1.698;2023-05-07T09:09:48;4.90;;;4.70;;
16862;SDS011;52193;48.216;-1.698;2023-05-07T09:12:15;5.03;;;4.65;;
16862;SDS011;52193;48.216;-1.698;2023-05-07T09:14:44;4.35;;;4.15;;
16862;SDS011;52193;48.216;-1.698;2023-05-07T09:17:12;4.60;;;4.30;;
16862;SDS011;52193;48.216;-1.698;2023-05-07T09:19:38;4.28;;;3.97;;
16862;SDS011;52193;48.216;-1.698;2023-05-07T09:22:05;4.15;;;3.95;;
16862;SDS011;52193;48.216;-1.698;2023-05-07T09:24:34;4.38;;;4.07;;
16862;SDS011;52193;48.216;-1.698;2023-05-07T09:27:03;3.85;;;3.65;;
16862;SDS011;52193;48.216;-1.698;2023-05-07T09:29:30;4.47;;;4.28;;
16862;SDS011;52193;48.216;-1.698;2023-05-07T09:32:00;5.00;;;4.70;;
16862;SDS011;52193;48.216;-1.698;2023-05-07T09:34:28;4.28;;;4.07;;
16862;SDS011;52193;48.216;-1.698;2023-05-07T09:36:55;4.35;;;4.05;;
16862;SDS011;52193;48.216;-1.698;2023-05-07T09:39:22;4.10;;;3.88;;
16862;SDS011;52193;48.216;-1.698;2023-05-07T09:41:51;3.40;;;3.20;;
16862;SDS011;52193;48.216;-1.698;2023-05-07T09:44:20;4.10;;;3.80;;
16862;SDS011;52193;48.216;-1.698;2023-05-07T09:46:47;4.57;;;4.28;;
16862;SDS011;52193;48.216;-1.698;2023-05-07T09:49:21;4.72;;;4.43;;
16862;SDS011;52193;48.216;-1.698;2023-05-07T09:51:50;4.32;;;4.10;;
16862;SDS011;52193;48.216;-1.698;2023-05-07T09:54:18;4.75;;;4.45;;
16862;SDS011;52193;48.216;-1.698;2023-05-07T09:56:45;5.25;;;4.95;;
16862;SDS011;52193;48.216;-1.698;2023-05-07T09:59:15;5.22;;;4.93;;
16862;SDS011;52193;48.216;-1.698;2023-05-07T10:01:43;5.25;;;4.95;;
16862;SDS011;52193;48.216;-1.698;2023-05-07T10:04:11;4.95;;;4.55;;
16862;SDS011;52193;48.216;-1.698;2023-05-07T10:06:38;4.80;;;4.50;;
16862;SDS011;52193;48.216;-1.698;2023-05-07T10:09:07;5.55;;;5.20;;
16862;SDS011;52193;48.216;-1.698;2023-05-07T10:11:36;5.82;;;5.43;;
16862;SDS011;52193;48.216;-1.698;2023-05-07T10:14:03;5.97;;;5.57;;
16862;SDS011;52193;48.216;-1.698;2023-05-07T10:16:34;5.10;;;4.80;;
16862;SDS011;52193;48.216;-1.698;2023-05-07T10:19:02;6.10;;;5.70;;
16862;SDS011;52193;48.216;-1.698;2023-05-07T10:21:30;4.68;;;4.38;;
16862;SDS011;52193;48.216;-1.698;2023-05-07T10:23:58;4.45;;;4.15;;
16862;SDS011;52193;48.216;-1.698;2023-05-07T10:26:27;4.22;;;3.95;;
16862;SDS011;52193;48.216;-1.698;2023-05-07T10:28:59;4.50;;;4.20;;
16862;SDS011;52193;48.216;-1.698;2023-05-07T10:31:46;5.05;;;4.65;;
16862;SDS011;52193;48.216;-1.698;2023-05-07T10:34:21;5.22;;;4.82;;
16862;SDS011;52193;48.216;-1.698;2023-05-07T10:36:52;3.85;;;3.63;;
16862;SDS011;52193;48.216;-1.698;2023-05-07T10:39:20;3.63;;;3.33;;
16862;SDS011;52193;48.216;-1.698;2023-05-07T10:41:48;5.00;;;4.53;;
16862;SDS011;52193;48.216;-1.698;2023-05-07T10:44:24;3.97;;;3.67;;
16862;SDS011;52193;48.216;-1.698;2023-05-07T10:47:05;3.83;;;3.53;;
16862;SDS011;52193;48.216;-1.698;2023-05-07T10:49:34;3.90;;;3.60;;
16862;SDS011;52193;48.216;-1.698;2023-05-07T10:52:11;3.90;;;3.60;;
16862;SDS011;52193;48.216;-1.698;2023-05-07T10:54:39;4.18;;;3.78;;
16862;SDS011;52193;48.216;-1.698;2023-05-07T11:00:02;3.33;;;3.05;;
16862;SDS011;52193;48.216;-1.698;2023-05-07T11:05:33;4.10;;;3.22;;
16862;SDS011;52193;48.216;-1.698;2023-05-07T11:08:00;3.60;;;3.30;;
16862;SDS011;52193;48.216;-1.698;2023-05-07T11:10:47;4.03;;;3.72;;
16862;SDS011;52193;48.216;-1.698;2023-05-07T11:13:15;3.72;;;3.42;;
16862;SDS011;52193;48.216;-1.698;2023-05-07T11:15:43;5.25;;;3.67;;
16862;SDS011;52193;48.216;-1.698;2023-05-07T11:18:14;4.22;;;3.92;;
16862;SDS011;52193;48.216;-1.698;2023-05-07T11:20:44;4.38;;;3.97;;
16862;SDS011;52193;48.216;-1.698;2023-05-07T11:26:17;4.72;;;4.25;;
16862;SDS011;52193;48.216;-1.698;2023-05-07T11:28:44;4.50;;;4.10;;
16862;SDS011;52193;48.216;-1.698;2023-05-07T11:31:11;4.38;;;3.97;;
16862;SDS011;52193;48.216;-1.698;2023-05-07T11:33:40;4.18;;;3.75;;
16862;SDS011;52193;48.216;-1.698;2023-05-07T11:36:09;4.00;;;3.60;;
16862;SDS011;52193;48.216;-1.698;2023-05-07T11:38:36;7.75;;;4.93;;
16862;SDS011;52193;48.216;-1.698;2023-05-07T11:41:04;5.35;;;4.05;;
16862;SDS011;52193;48.216;-1.698;2023-05-07T11:43:31;5.50;;;3.40;;
16862;SDS011;52193;48.216;-1.698;2023-05-07T11:46:08;4.47;;;3.58;;
16862;SDS011;52193;48.216;-1.698;2023-05-07T11:48:35;5.80;;;4.43;;
16862;SDS011;52193;48.216;-1.698;2023-05-07T11:51:04;5.13;;;3.40;;
16862;SDS011;52193;48.216;-1.698;2023-05-07T11:53:37;4.05;;;3.13;;
16862;SDS011;52193;48.216;-1.698;2023-05-07T11:56:06;4.00;;;2.92;;
16862;SDS011;52193;48.216;-1.698;2023-05-07T11:58:33;5.00;;;3.38;;
16862;SDS011;52193;48.216;-1.698;2023-05-07T12:01:01;3.88;;;3.47;;
16862;SDS011;52193;48.216;-1.698;2023-05-07T12:03:28;6.15;;;3.50;;
16862;SDS011;52193;48.216;-1.698;2023-05-07T12:05:55;5.93;;;3.38;;
16862;SDS011;52193;48.216;-1.698;2023-05-07T12:08:23;4.03;;;3.00;;
16862;SDS011;52193;48.216;-1.698;2023-05-07T12:10:50;3.83;;;3.08;;
16862;SDS011;52193;48.216;-1.698;2023-05-07T12:13:18;4.43;;;2.80;;
16862;SDS011;52193;48.216;-1.698;2023-05-07T12:15:46;4.47;;;3.08;;
16862;SDS011;52193;48.216;-1.698;2023-05-07T12:18:16;5.05;;;2.90;;
16862;SDS011;52193;48.216;-1.698;2023-05-07T12:20:43;6.78;;;3.40;;
16862;SDS011;52193;48.216;-1.698;2023-05-07T12:23:11;3.33;;;2.50;;
16862;SDS011;52193;48.216;-1.698;2023-05-07T12:25:41;3.58;;;2.88;;
16862;SDS011;52193;48.216;-1.698;2023-05-07T12:28:12;3.65;;;2.83;;
16862;SDS011;52193;48.216;-1.698;2023-05-07T12:30:39;2.60;;;2.40;;
16862;SDS011;52193;48.216;-1.698;2023-05-07T12:33:06;3.60;;;2.38;;
16862;SDS011;52193;48.216;-1.698;2023-05-07T12:35:36;3.28;;;2.28;;
16862;SDS011;52193;48.216;-1.698;2023-05-07T12:38:06;3.33;;;2.30;;
16862;SDS011;52193;48.216;-1.698;2023-05-07T12:40:37;3.95;;;2.58;;
16862;SDS011;52193;48.216;-1.698;2023-05-07T12:43:07;3.30;;;2.30;;
16862;SDS011;52193;48.216;-1.698;2023-05-07T12:45:41;3.35;;;2.38;;
16862;SDS011;52193;48.216;-1.698;2023-05-07T12:48:09;2.65;;;2.10;;
16862;SDS011;52193;48.216;-1.698;2023-05-07T12:50:36;2.47;;;2.10;;
16862;SDS011;52193;48.216;-1.698;2023-05-07T12:53:04;2.60;;;2.10;;
16862;SDS011;52193;48.216;-1.698;2023-05-07T12:55:34;2.40;;;2.03;;
16862;SDS011;52193;48.216;-1.698;2023-05-07T12:58:14;2.10;;;1.77;;
16862;SDS011;52193;48.216;-1.698;2023-05-07T13:00:45;2.20;;;2.00;;
16862;SDS011;52193;48.216;-1.698;2023-05-07T13:03:20;2.20;;;2.00;;
16862;SDS011;52193;48.216;-1.698;2023-05-07T13:05:49;1.77;;;1.67;;
16862;SDS011;52193;48.216;-1.698;2023-05-07T13:11:04;2.13;;;1.52;;
16862;SDS011;52193;48.216;-1.698;2023-05-07T13:13:31;2.17;;;1.63;;
16862;SDS011;52193;48.216;-1.698;2023-05-07T13:15:59;1.38;;;1.25;;
16862;SDS011;52193;48.216;-1.698;2023-05-07T13:18:26;1.40;;;1.30;;
16862;SDS011;52193;48.216;-1.698;2023-05-07T13:20:55;1.55;;;1.45;;
16862;SDS011;52193;48.216;-1.698;2023-05-07T13:23:22;1.83;;;1.58;;
16862;SDS011;52193;48.216;-1.698;2023-05-07T13:25:50;2.78;;;1.40;;
16862;SDS011;52193;48.216;-1.698;2023-05-07T13:28:20;1.30;;;1.20;;
16862;SDS011;52193;48.216;-1.698;2023-05-07T13:30:47;1.30;;;1.20;;
16862;SDS011;52193;48.216;-1.698;2023-05-07T13:33:14;1.55;;;1.20;;
16862;SDS011;52193;48.216;-1.698;2023-05-07T13:35:41;1.20;;;1.10;;
16862;SDS011;52193;48.216;-1.698;2023-05-07T13:38:08;1.55;;;1.20;;
16862;SDS011;52193;48.216;-1.698;2023-05-07T13:40:35;1.30;;;1.20;;
16862;SDS011;52193;48.216;-1.698;2023-05-07T13:43:02;1.02;;;1.00;;
16862;SDS011;52193;48.216;-1.698;2023-05-07T13:45:30;1.05;;;1.05;;
16862;SDS011;52193;48.216;-1.698;2023-05-07T13:47:57;1.25;;;1.08;;
16862;SDS011;52193;48.216;-1.698;2023-05-07T13:50:24;1.30;;;1.00;;
16862;SDS011;52193;48.216;-1.698;2023-05-07T13:52:54;2.08;;;1.20;;
16862;SDS011;52193;48.216;-1.698;2023-05-07T13:55:23;0.95;;;0.90;;
16862;SDS011;52193;48.216;-1.698;2023-05-07T13:57:54;1.50;;;1.40;;
16862;SDS011;52193;48.216;-1.698;2023-05-07T14:00:22;1.98;;;1.33;;
16862;SDS011;52193;48.216;-1.698;2023-05-07T14:02:51;3.17;;;1.52;;
16862;SDS011;52193;48.216;-1.698;2023-05-07T14:05:18;1.42;;;1.30;;
16862;SDS011;52193;48.216;-1.698;2023-05-07T14:07:45;2.10;;;1.42;;
16862;SDS011;52193;48.216;-1.698;2023-05-07T14:10:12;1.65;;;1.25;;
16862;SDS011;52193;48.216;-1.698;2023-05-07T14:12:39;1.40;;;1.30;;
16862;SDS011;52193;48.216;-1.698;2023-05-07T14:15:07;1.95;;;1.27;;
16862;SDS011;52193;48.216;-1.698;2023-05-07T14:17:34;2.83;;;1.60;;
16862;SDS011;52193;48.216;-1.698;2023-05-07T14:20:03;1.45;;;1.30;;
16862;SDS011;52193;48.216;-1.698;2023-05-07T14:22:31;1.52;;;1.15;;
16862;SDS011;52193;48.216;-1.698;2023-05-07T14:24:58;1.08;;;0.80;;
16862;SDS011;52193;48.216;-1.698;2023-05-07T14:27:25;1.63;;;1.30;;
16862;SDS011;52193;48.216;-1.698;2023-05-07T14:29:52;1.45;;;1.05;;
16862;SDS011;52193;48.216;-1.698;2023-05-07T14:32:18;1.30;;;1.20;;
16862;SDS011;52193;48.216;-1.698;2023-05-07T14:34:46;2.30;;;1.23;;
16862;SDS011;52193;48.216;-1.698;2023-05-07T14:37:14;1.10;;;0.90;;
16862;SDS011;52193;48.216;-1.698;2023-05-07T14:39:41;2.50;;;1.58;;
16862;SDS011;52193;48.216;-1.698;2023-05-07T14:42:08;2.05;;;1.45;;
16862;SDS011;52193;48.216;-1.698;2023-05-07T14:44:35;2.97;;;1.55;;
16862;SDS011;52193;48.216;-1.698;2023-05-07T14:47:02;2.28;;;1.33;;
16862;SDS011;52193;48.216;-1.698;2023-05-07T14:49:29;1.63;;;1.20;;